createdAt,value
2018-01-12T00:00:31.333Z,1024.91
2018-01-12T00:01:30.790Z,1024.97
2018-01-12T00:02:30.818Z,1024.95
2018-01-12T00:03:30.868Z,1024.98
2018-01-12T00:04:31.411Z,1024.99
2018-01-12T00:05:30.808Z,1025.01
2018-01-12T00:06:31.036Z,1025.01
2018-01-12T00:07:30.494Z,1025.01
2018-01-12T00:08:30.890Z,1025.06
2018-01-12T00:09:31.263Z,1025.06
2018-01-12T00:10:30.757Z,1025.02
2018-01-12T00:11:31.316Z,1025.09
2018-01-12T00:12:30.768Z,1025.05
2018-01-12T00:13:31.299Z,1025.09
2018-01-12T00:14:31.739Z,1025.04
2018-01-12T00:15:31.265Z,1025.08
2018-01-12T00:16:31.604Z,1025.07
2018-01-12T00:17:30.947Z,1025.11
2018-01-12T00:18:31.206Z,1025.11
2018-01-12T00:19:31.500Z,1025.09
2018-01-12T00:20:30.817Z,1025.1
2018-01-12T00:21:31.283Z,1025.13
2018-01-12T00:22:31.495Z,1025.1
2018-01-12T00:23:31.101Z,1025.13
2018-01-12T00:24:31.765Z,1025.16
2018-01-12T00:25:31.131Z,1025.16
2018-01-12T00:26:31.469Z,1025.15
2018-01-12T00:27:30.747Z,1025.18
2018-01-12T00:28:31.073Z,1025.2
2018-01-12T00:29:31.386Z,1025.17
2018-01-12T00:30:31.102Z,1025.2
2018-01-12T00:31:31.377Z,1025.18
2018-01-12T00:32:31.601Z,1025.19
2018-01-12T00:33:30.893Z,1025.18
2018-01-12T00:34:31.590Z,1025.17
2018-01-12T00:35:31.124Z,1025.15
2018-01-12T00:36:31.476Z,1025.16
2018-01-12T00:37:30.809Z,1025.17
2018-01-12T00:38:31.095Z,1025.18
2018-01-12T00:39:31.203Z,1025.13
2018-01-12T00:40:31.519Z,1025.11
2018-01-12T00:41:30.861Z,1025.16
2018-01-12T00:42:31.240Z,1025.17
2018-01-12T00:43:31.359Z,1025.12
2018-01-12T00:44:30.762Z,1025.16
2018-01-12T00:45:30.937Z,1025.18
2018-01-12T00:46:31.206Z,1025.2
2018-01-12T00:47:30.692Z,1025.2
2018-01-12T00:48:30.919Z,1025.22
2018-01-12T00:49:31.093Z,1025.16
2018-01-12T00:50:31.413Z,1025.22
2018-01-12T00:51:30.713Z,1025.21
2018-01-12T00:52:30.951Z,1025.18
2018-01-12T00:53:31.307Z,1025.19
2018-01-12T00:54:30.603Z,1025.18
2018-01-12T00:55:31.089Z,1025.17
2018-01-12T00:56:31.449Z,1025.16
2018-01-12T00:57:30.873Z,1025.21
2018-01-12T00:58:31.311Z,1025.19
2018-01-12T00:59:30.702Z,1025.23
2018-01-12T01:00:31.049Z,1025.22
2018-01-12T01:01:31.423Z,1025.22
2018-01-12T01:02:30.873Z,1025.25
2018-01-12T01:03:31.178Z,1025.29
2018-01-12T01:04:31.505Z,1025.29
2018-01-12T01:05:31.000Z,1025.24
2018-01-12T01:06:31.321Z,1025.3
2018-01-12T01:07:30.652Z,1025.29
2018-01-12T01:08:30.943Z,1025.29
2018-01-12T01:09:31.157Z,1025.3
2018-01-12T01:10:30.829Z,1025.3
2018-01-12T01:11:31.281Z,1025.33
2018-01-12T01:12:30.460Z,1025.32
2018-01-12T01:13:30.927Z,1025.32
2018-01-12T01:14:30.411Z,1025.35
2018-01-12T01:15:30.811Z,1025.36
2018-01-12T01:16:30.358Z,1025.38
2018-01-12T01:17:30.689Z,1025.39
2018-01-12T01:18:30.837Z,1025.42
2018-01-12T01:19:31.073Z,1025.46
2018-01-12T01:20:31.116Z,1025.41
2018-01-12T01:21:30.415Z,1025.44
2018-01-12T01:22:30.606Z,1025.41
2018-01-12T01:23:30.953Z,1025.41
2018-01-12T01:24:30.197Z,1025.44
2018-01-12T01:25:30.535Z,1025.43
2018-01-12T01:26:30.858Z,1025.44
2018-01-12T01:27:30.469Z,1025.45
2018-01-12T01:28:30.835Z,1025.44
2018-01-12T01:29:31.120Z,1025.45
2018-01-12T01:30:30.418Z,1025.48
2018-01-12T01:31:30.719Z,1025.46
2018-01-12T01:32:31.276Z,1025.46
2018-01-12T01:33:30.557Z,1025.46
2018-01-12T01:34:31.022Z,1025.5
2018-01-12T01:35:30.370Z,1025.52
2018-01-12T01:36:31.237Z,1025.54
2018-01-12T01:37:30.605Z,1025.57
2018-01-12T01:38:30.204Z,1025.57
2018-01-12T01:39:30.604Z,1025.63
2018-01-12T01:40:30.854Z,1025.55
2018-01-12T01:41:30.238Z,1025.57
2018-01-12T01:42:30.663Z,1025.57
2018-01-12T01:43:30.854Z,1025.54
2018-01-12T01:44:31.078Z,1025.58
2018-01-12T01:45:31.320Z,1025.61
2018-01-12T01:46:31.526Z,1025.59
2018-01-12T01:47:30.779Z,1025.59
2018-01-12T01:48:31.239Z,1025.68
2018-01-12T01:49:31.017Z,1025.66
2018-01-12T01:50:31.311Z,1025.66
2018-01-12T01:51:30.789Z,1025.68
2018-01-12T01:52:30.971Z,1025.68
2018-01-12T01:53:31.414Z,1025.72
2018-01-12T01:55:31.631Z,1025.71
2018-01-12T01:56:31.019Z,1025.74
2018-01-12T01:57:31.309Z,1025.77
2018-01-12T01:58:30.780Z,1025.81
2018-01-12T01:59:31.121Z,1025.81
2018-01-12T02:00:31.674Z,1025.88
2018-01-12T02:01:30.812Z,1025.86
2018-01-12T02:02:31.071Z,1025.85
2018-01-12T02:03:31.552Z,1025.85
2018-01-12T02:04:31.040Z,1025.85
2018-01-12T02:05:31.430Z,1025.85
2018-01-12T02:06:32.271Z,1025.82
2018-01-12T02:07:31.518Z,1025.85
2018-01-12T02:08:30.782Z,1025.85
2018-01-12T02:09:31.214Z,1025.86
2018-01-12T02:10:31.613Z,1025.89
2018-01-12T02:11:31.063Z,1025.86
2018-01-12T02:12:31.477Z,1025.89
2018-01-12T02:13:30.635Z,1025.88
2018-01-12T02:14:30.981Z,1025.84
2018-01-12T02:15:31.380Z,1025.84
2018-01-12T02:16:30.741Z,1025.82
2018-01-12T02:17:30.930Z,1025.81
2018-01-12T02:18:31.110Z,1025.78
2018-01-12T02:19:31.444Z,1025.8
2018-01-12T02:20:30.890Z,1025.76
2018-01-12T02:21:31.392Z,1025.8
2018-01-12T02:22:31.108Z,1025.77
2018-01-12T02:23:31.406Z,1025.82
2018-01-12T02:24:30.802Z,1025.79
2018-01-12T02:25:31.327Z,1025.8
2018-01-12T02:26:30.823Z,1025.81
2018-01-12T02:27:31.376Z,1025.8
2018-01-12T02:28:31.063Z,1025.83
2018-01-12T02:29:31.429Z,1025.85
2018-01-12T02:30:30.808Z,1025.85
2018-01-12T02:31:30.836Z,1025.86
2018-01-12T02:32:31.338Z,1025.87
2018-01-12T02:33:30.971Z,1025.88
2018-01-12T02:34:31.577Z,1025.85
2018-01-12T02:35:31.115Z,1025.87
2018-01-12T02:36:31.542Z,1025.87
2018-01-12T02:37:30.954Z,1025.92
2018-01-12T02:38:31.365Z,1025.86
2018-01-12T02:39:30.909Z,1025.85
2018-01-12T02:40:31.306Z,1025.9
2018-01-12T02:41:30.681Z,1025.92
2018-01-12T02:42:31.277Z,1025.85
2018-01-12T02:43:30.684Z,1025.89
2018-01-12T02:44:31.240Z,1025.89
2018-01-12T02:45:31.665Z,1025.89
2018-01-12T02:46:31.203Z,1025.9
2018-01-12T02:47:31.657Z,1025.93
2018-01-12T02:48:31.362Z,1025.9
2018-01-12T02:49:31.956Z,1025.92
2018-01-12T02:50:31.081Z,1025.91
2018-01-12T02:51:31.360Z,1025.94
2018-01-12T02:52:30.866Z,1025.93
2018-01-12T02:53:31.214Z,1025.92
2018-01-12T02:54:31.594Z,1025.88
2018-01-12T02:55:31.331Z,1025.9
2018-01-12T02:56:31.534Z,1025.9
2018-01-12T02:57:30.800Z,1025.9
2018-01-12T02:58:31.123Z,1025.84
2018-01-12T02:59:31.581Z,1025.92
2018-01-12T03:00:31.009Z,1025.93
2018-01-12T03:01:31.778Z,1025.94
2018-01-12T03:02:31.221Z,1025.91
2018-01-12T03:03:31.576Z,1025.92
2018-01-12T03:04:31.051Z,1025.93
2018-01-12T03:05:31.464Z,1025.97
2018-01-12T03:06:31.267Z,1025.96
2018-01-12T03:07:30.994Z,1026
2018-01-12T03:08:31.511Z,1026.01
2018-01-12T03:09:30.927Z,1026.01
2018-01-12T03:10:31.268Z,1026.01
2018-01-12T03:11:31.531Z,1026.04
2018-01-12T03:12:31.023Z,1026.05
2018-01-12T03:13:31.478Z,1026.04
2018-01-12T03:14:30.735Z,1026.06
2018-01-12T03:15:31.036Z,1026.05
2018-01-12T03:16:31.452Z,1026.07
2018-01-12T03:17:31.049Z,1026.08
2018-01-12T03:18:31.391Z,1026.09
2018-01-12T03:19:30.875Z,1026.14
2018-01-12T03:20:31.388Z,1026.11
2018-01-12T03:21:30.860Z,1026.15
2018-01-12T03:22:31.363Z,1026.14
2018-01-12T03:23:30.843Z,1026.15
2018-01-12T03:24:31.169Z,1026.16
2018-01-12T03:25:30.658Z,1026.14
2018-01-12T03:26:30.978Z,1026.16
2018-01-12T03:27:31.425Z,1026.14
2018-01-12T03:28:31.024Z,1026.21
2018-01-12T03:29:30.538Z,1026.19
2018-01-12T03:30:31.098Z,1026.17
2018-01-12T03:31:31.300Z,1026.2
2018-01-12T03:32:30.755Z,1026.27
2018-01-12T03:33:31.081Z,1026.29
2018-01-12T03:34:31.435Z,1026.31
2018-01-12T03:35:30.795Z,1026.3
2018-01-12T03:36:31.281Z,1026.32
2018-01-12T03:37:30.739Z,1026.34
2018-01-12T03:38:30.918Z,1026.26
2018-01-12T03:39:31.288Z,1026.3
2018-01-12T03:40:30.585Z,1026.31
2018-01-12T03:41:30.948Z,1026.33
2018-01-12T03:42:31.621Z,1026.34
2018-01-12T03:43:30.877Z,1026.33
2018-01-12T03:44:31.230Z,1026.35
2018-01-12T03:45:30.647Z,1026.38
2018-01-12T03:46:30.835Z,1026.39
2018-01-12T03:47:30.146Z,1026.39
2018-01-12T03:48:30.531Z,1026.33
2018-01-12T03:49:30.764Z,1026.34
2018-01-12T03:50:30.315Z,1026.33
2018-01-12T03:51:30.788Z,1026.36
2018-01-12T03:52:30.328Z,1026.35
2018-01-12T03:53:30.792Z,1026.31
2018-01-12T03:54:31.014Z,1026.32
2018-01-12T03:55:30.297Z,1026.37
2018-01-12T03:56:30.828Z,1026.4
2018-01-12T03:57:30.246Z,1026.37
2018-01-12T03:58:30.533Z,1026.38
2018-01-12T03:59:30.811Z,1026.38
2018-01-12T04:00:30.039Z,1026.39
2018-01-12T04:01:30.515Z,1026.39
2018-01-12T04:02:30.920Z,1026.39
2018-01-12T04:03:30.351Z,1026.41
2018-01-12T04:04:30.884Z,1026.39
2018-01-12T04:05:30.370Z,1026.39
2018-01-12T04:06:30.762Z,1026.42
2018-01-12T04:07:31.070Z,1026.39
2018-01-12T04:08:30.450Z,1026.45
2018-01-12T04:09:30.784Z,1026.43
2018-01-12T04:10:31.091Z,1026.45
2018-01-12T04:11:30.647Z,1026.42
2018-01-12T04:12:30.539Z,1026.43
2018-01-12T04:13:30.964Z,1026.44
2018-01-12T04:14:30.412Z,1026.4
2018-01-12T04:15:30.789Z,1026.43
2018-01-12T04:16:31.311Z,1026.43
2018-01-12T04:17:31.661Z,1026.45
2018-01-12T04:18:30.953Z,1026.44
2018-01-12T04:19:31.357Z,1026.4
2018-01-12T04:20:31.648Z,1026.44
2018-01-12T04:21:31.028Z,1026.43
2018-01-12T04:22:31.503Z,1026.44
2018-01-12T04:23:30.790Z,1026.45
2018-01-12T04:24:31.190Z,1026.46
2018-01-12T04:25:31.489Z,1026.52
2018-01-12T04:26:30.711Z,1026.53
2018-01-12T04:27:30.959Z,1026.5
2018-01-12T04:28:31.121Z,1026.51
2018-01-12T04:29:31.414Z,1026.52
2018-01-12T04:30:30.847Z,1026.54
2018-01-12T04:31:31.194Z,1026.56
2018-01-12T04:32:31.450Z,1026.52
2018-01-12T04:33:30.969Z,1026.53
2018-01-12T04:34:30.965Z,1026.52
2018-01-12T04:35:31.146Z,1026.51
2018-01-12T04:36:31.267Z,1026.55
2018-01-12T04:37:31.425Z,1026.57
2018-01-12T04:38:30.678Z,1026.6
2018-01-12T04:39:30.970Z,1026.55
2018-01-12T04:40:31.209Z,1026.61
2018-01-12T04:41:31.499Z,1026.54
2018-01-12T04:42:30.758Z,1026.55
2018-01-12T04:43:30.924Z,1026.56
2018-01-12T04:44:31.321Z,1026.53
2018-01-12T04:45:31.791Z,1026.54
2018-01-12T04:46:31.059Z,1026.54
2018-01-12T04:47:31.384Z,1026.58
2018-01-12T04:48:31.620Z,1026.59
2018-01-12T04:49:30.890Z,1026.55
2018-01-12T04:50:31.383Z,1026.64
2018-01-12T04:51:30.985Z,1026.65
2018-01-12T04:52:31.411Z,1026.65
2018-01-12T04:53:30.871Z,1026.6
2018-01-12T04:54:31.266Z,1026.63
2018-01-12T04:55:31.740Z,1026.59
2018-01-12T04:56:31.313Z,1026.59
2018-01-12T04:57:31.881Z,1026.6
2018-01-12T04:58:31.352Z,1026.65
2018-01-12T04:59:30.832Z,1026.65
2018-01-12T05:00:31.431Z,1026.69
2018-01-12T05:01:30.936Z,1026.7
2018-01-12T05:02:31.496Z,1026.69
2018-01-12T05:03:31.050Z,1026.74
2018-01-12T05:04:31.589Z,1026.72
2018-01-12T05:05:31.359Z,1026.74
2018-01-12T05:06:30.839Z,1026.74
2018-01-12T05:07:31.357Z,1026.77
2018-01-12T05:08:30.957Z,1026.78
2018-01-12T05:09:31.867Z,1026.75
2018-01-12T05:10:31.465Z,1026.79
2018-01-12T05:11:31.034Z,1026.8
2018-01-12T05:12:31.580Z,1026.81
2018-01-12T05:13:31.209Z,1026.79
2018-01-12T05:14:31.728Z,1026.83
2018-01-12T05:15:31.275Z,1026.82
2018-01-12T05:16:31.037Z,1026.86
2018-01-12T05:17:31.543Z,1026.9
2018-01-12T05:18:30.995Z,1026.88
2018-01-12T05:19:31.716Z,1026.87
2018-01-12T05:20:31.175Z,1026.88
2018-01-12T05:21:31.669Z,1026.88
2018-01-12T05:22:31.603Z,1026.88
2018-01-12T05:23:31.006Z,1026.92
2018-01-12T05:24:31.422Z,1026.93
2018-01-12T05:25:31.725Z,1026.94
2018-01-12T05:26:31.310Z,1026.9
2018-01-12T05:27:31.716Z,1026.9
2018-01-12T05:28:31.042Z,1026.88
2018-01-12T05:29:31.319Z,1026.89
2018-01-12T05:30:31.545Z,1026.91
2018-01-12T05:31:31.860Z,1026.98
2018-01-12T05:32:31.206Z,1026.93
2018-01-12T05:33:31.419Z,1026.95
2018-01-12T05:34:31.762Z,1026.96
2018-01-12T05:35:31.062Z,1026.96
2018-01-12T05:36:31.334Z,1026.96
2018-01-12T05:37:31.809Z,1027
2018-01-12T05:38:31.097Z,1026.97
2018-01-12T05:39:31.531Z,1027.02
2018-01-12T05:40:30.940Z,1027.01
2018-01-12T05:41:31.241Z,1027.03
2018-01-12T05:42:31.717Z,1027.1
2018-01-12T05:43:31.060Z,1027.1
2018-01-12T05:44:31.456Z,1027.12
2018-01-12T05:45:31.823Z,1027.13
2018-01-12T05:46:30.997Z,1027.11
2018-01-12T05:47:31.658Z,1027.12
2018-01-12T05:48:31.393Z,1027.13
2018-01-12T05:49:31.764Z,1027.13
2018-01-12T05:50:31.108Z,1027.14
2018-01-12T05:51:31.301Z,1027.12
2018-01-12T05:52:31.563Z,1027.13
2018-01-12T05:53:32.016Z,1027.15
2018-01-12T05:54:31.137Z,1027.16
2018-01-12T05:55:31.346Z,1027.15
2018-01-12T05:56:31.705Z,1027.17
2018-01-12T05:57:31.242Z,1027.12
2018-01-12T05:58:31.488Z,1027.12
2018-01-12T05:59:31.776Z,1027.16
2018-01-12T06:00:31.105Z,1027.15
2018-01-12T06:01:31.374Z,1027.16
2018-01-12T06:02:31.769Z,1027.16
2018-01-12T06:03:32.047Z,1027.16
2018-01-12T06:04:31.284Z,1027.17
2018-01-12T06:05:31.544Z,1027.15
2018-01-12T06:06:31.817Z,1027.15
2018-01-12T06:07:30.999Z,1027.14
2018-01-12T06:08:31.628Z,1027.14
2018-01-12T06:09:31.180Z,1027.13
2018-01-12T06:10:31.440Z,1027.1
2018-01-12T06:11:31.560Z,1027.11
2018-01-12T06:12:32.042Z,1027.08
2018-01-12T06:13:31.514Z,1027.1
2018-01-12T06:14:31.874Z,1027.13
2018-01-12T06:15:31.222Z,1027.13
2018-01-12T06:16:31.454Z,1027.15
2018-01-12T06:17:30.874Z,1027.18
2018-01-12T06:18:31.332Z,1027.16
2018-01-12T06:19:30.722Z,1027.18
2018-01-12T06:20:31.140Z,1027.18
2018-01-12T06:21:31.276Z,1027.26
2018-01-12T06:22:30.470Z,1027.28
2018-01-12T06:23:30.681Z,1027.24
2018-01-12T06:24:31.154Z,1027.25
2018-01-12T06:25:30.602Z,1027.23
2018-01-12T06:26:30.990Z,1027.29
2018-01-12T06:27:31.252Z,1027.22
2018-01-12T06:28:31.402Z,1027.25
2018-01-12T06:29:30.649Z,1027.29
2018-01-12T06:30:30.789Z,1027.25
2018-01-12T06:31:31.300Z,1027.27
2018-01-12T06:32:30.658Z,1027.28
2018-01-12T06:33:30.893Z,1027.31
2018-01-12T06:34:31.158Z,1027.33
2018-01-12T06:35:31.449Z,1027.31
2018-01-12T06:36:30.784Z,1027.32
2018-01-12T06:37:31.065Z,1027.29
2018-01-12T06:38:31.148Z,1027.3
2018-01-12T06:39:31.280Z,1027.31
2018-01-12T06:40:31.420Z,1027.28
2018-01-12T06:41:30.811Z,1027.32
2018-01-12T06:42:31.054Z,1027.34
2018-01-12T06:43:31.326Z,1027.4
2018-01-12T06:44:30.613Z,1027.37
2018-01-12T06:45:30.748Z,1027.38
2018-01-12T06:46:31.035Z,1027.43
2018-01-12T06:47:31.235Z,1027.44
2018-01-12T06:48:31.011Z,1027.43
2018-01-12T06:49:30.464Z,1027.44
2018-01-12T06:50:30.766Z,1027.49
2018-01-12T06:51:30.918Z,1027.5
2018-01-12T06:52:30.370Z,1027.5
2018-01-12T06:53:30.795Z,1027.51
2018-01-12T06:54:31.094Z,1027.53
2018-01-12T06:55:30.301Z,1027.49
2018-01-12T06:56:30.504Z,1027.52
2018-01-12T06:57:30.803Z,1027.55
2018-01-12T06:58:30.924Z,1027.6
2018-01-12T06:59:31.274Z,1027.54
2018-01-12T07:00:30.625Z,1027.55
2018-01-12T07:01:30.884Z,1027.52
2018-01-12T07:02:31.152Z,1027.52
2018-01-12T07:03:30.641Z,1027.51
2018-01-12T07:04:31.245Z,1027.52
2018-01-12T07:05:30.660Z,1027.52
2018-01-12T07:06:31.172Z,1027.47
2018-01-12T07:07:30.653Z,1027.5
2018-01-12T07:08:31.054Z,1027.54
2018-01-12T07:09:30.347Z,1027.56
2018-01-12T07:10:30.599Z,1027.53
2018-01-12T07:11:30.806Z,1027.6
2018-01-12T07:12:31.144Z,1027.55
2018-01-12T07:13:30.538Z,1027.59
2018-01-12T07:14:30.998Z,1027.59
2018-01-12T07:15:31.254Z,1027.58
2018-01-12T07:16:30.556Z,1027.59
2018-01-12T07:17:31.058Z,1027.61
2018-01-12T07:18:30.759Z,1027.6
2018-01-12T07:19:31.248Z,1027.58
2018-01-12T07:20:30.641Z,1027.59
2018-01-12T07:21:31.083Z,1027.57
2018-01-12T07:22:31.546Z,1027.56
2018-01-12T07:23:31.207Z,1027.55
2018-01-12T07:24:31.590Z,1027.54
2018-01-12T07:25:31.050Z,1027.58
2018-01-12T07:26:31.296Z,1027.56
2018-01-12T07:27:31.573Z,1027.55
2018-01-12T07:28:31.091Z,1027.58
2018-01-12T07:29:31.490Z,1027.59
2018-01-12T07:30:30.885Z,1027.56
2018-01-12T07:31:31.133Z,1027.56
2018-01-12T07:32:31.368Z,1027.59
2018-01-12T07:33:30.976Z,1027.59
2018-01-12T07:34:31.350Z,1027.61
2018-01-12T07:35:30.680Z,1027.61
2018-01-12T07:36:31.234Z,1027.6
2018-01-12T07:37:31.532Z,1027.63
2018-01-12T07:38:30.810Z,1027.61
2018-01-12T07:39:31.217Z,1027.61
2018-01-12T07:40:31.650Z,1027.67
2018-01-12T07:41:30.927Z,1027.6
2018-01-12T07:42:31.238Z,1027.65
2018-01-12T07:43:31.530Z,1027.66
2018-01-12T07:44:31.051Z,1027.66
2018-01-12T07:45:31.424Z,1027.69
2018-01-12T07:46:31.676Z,1027.71
2018-01-12T07:47:31.182Z,1027.68
2018-01-12T07:48:31.559Z,1027.69
2018-01-12T07:49:30.966Z,1027.68
2018-01-12T07:50:31.436Z,1027.67
2018-01-12T07:51:30.678Z,1027.73
2018-01-12T07:52:32.006Z,1027.72
2018-01-12T07:53:31.163Z,1027.78
2018-01-12T07:54:31.526Z,1027.78
2018-01-12T07:55:31.052Z,1027.79
2018-01-12T07:56:30.522Z,1027.84
2018-01-12T07:57:30.601Z,1027.85
2018-01-12T07:58:30.871Z,1027.87
2018-01-12T07:59:31.141Z,1027.85
2018-01-12T08:00:31.337Z,1027.87
2018-01-12T08:01:30.620Z,1027.86
2018-01-12T08:02:30.852Z,1027.88
2018-01-12T08:03:31.063Z,1027.89
2018-01-12T08:04:31.412Z,1027.92
2018-01-12T08:05:30.699Z,1027.91
2018-01-12T08:06:30.942Z,1027.93
2018-01-12T08:07:31.075Z,1027.94
2018-01-12T08:08:31.388Z,1028
2018-01-12T08:09:30.992Z,1027.99
2018-01-12T08:10:31.305Z,1027.99
2018-01-12T08:11:30.676Z,1028.05
2018-01-12T08:12:30.723Z,1028.01
2018-01-12T08:13:31.044Z,1028.01
2018-01-12T08:14:31.457Z,1028.02
2018-01-12T08:15:30.720Z,1028.02
2018-01-12T08:16:31.356Z,1028.04
2018-01-12T08:17:30.612Z,1028.06
2018-01-12T08:18:30.971Z,1028.02
2018-01-12T08:19:31.302Z,1028.04
2018-01-12T08:20:30.849Z,1028.02
2018-01-12T08:21:31.280Z,1028.01
2018-01-12T08:22:30.787Z,1028.07
2018-01-12T08:23:30.913Z,1028.06
2018-01-12T08:24:30.271Z,1028.03
2018-01-12T08:25:30.517Z,1028.07
2018-01-12T08:26:30.862Z,1028.09
2018-01-12T08:27:31.272Z,1028.11
2018-01-12T08:28:30.647Z,1028.11
2018-01-12T08:29:30.927Z,1028.13
2018-01-12T08:30:31.087Z,1028.11
2018-01-12T08:31:30.678Z,1028.14
2018-01-12T08:32:30.957Z,1028.15
2018-01-12T08:33:30.511Z,1028.14
2018-01-12T08:34:30.931Z,1028.12
2018-01-12T08:35:31.249Z,1028.16
2018-01-12T08:36:30.811Z,1028.17
2018-01-12T08:37:31.032Z,1028.18
2018-01-12T08:38:31.313Z,1028.19
2018-01-12T08:39:30.735Z,1028.17
2018-01-12T08:40:31.137Z,1028.16
2018-01-12T08:41:30.426Z,1028.24
2018-01-12T08:42:30.393Z,1028.19
2018-01-12T08:43:30.720Z,1028.19
2018-01-12T08:44:30.916Z,1028.22
2018-01-12T08:45:31.124Z,1028.24
2018-01-12T08:46:30.397Z,1028.22
2018-01-12T08:47:30.663Z,1028.25
2018-01-12T08:48:30.948Z,1028.22
2018-01-12T08:49:31.250Z,1028.22
2018-01-12T08:50:31.481Z,1028.2
2018-01-12T08:51:30.892Z,1028.19
2018-01-12T08:52:30.481Z,1028.23
2018-01-12T08:53:30.814Z,1028.22
2018-01-12T08:54:31.044Z,1028.21
2018-01-12T08:55:30.422Z,1028.21
2018-01-12T08:56:30.759Z,1028.17
2018-01-12T08:57:30.925Z,1028.19
2018-01-12T08:58:31.304Z,1028.19
2018-01-12T08:59:30.630Z,1028.19
2018-01-12T09:00:31.063Z,1028.22
2018-01-12T09:01:30.507Z,1028.21
2018-01-12T09:02:30.875Z,1028.22
2018-01-12T09:03:31.285Z,1028.24
2018-01-12T09:04:30.592Z,1028.24
2018-01-12T09:05:30.906Z,1028.23
2018-01-12T09:06:31.277Z,1028.25
2018-01-12T09:07:30.520Z,1028.25
2018-01-12T09:08:30.909Z,1028.25
2018-01-12T09:09:31.173Z,1028.25
2018-01-12T09:10:30.523Z,1028.26
2018-01-12T09:11:30.717Z,1028.27
2018-01-12T09:12:30.821Z,1028.25
2018-01-12T09:13:31.101Z,1028.3
2018-01-12T09:14:30.626Z,1028.34
2018-01-12T09:15:30.839Z,1028.32
2018-01-12T09:16:31.080Z,1028.38
2018-01-12T09:17:31.341Z,1028.36
2018-01-12T09:18:30.658Z,1028.42
2018-01-12T09:19:30.963Z,1028.38
2018-01-12T09:20:30.375Z,1028.41
2018-01-12T09:21:30.899Z,1028.38
2018-01-12T09:22:31.192Z,1028.41
2018-01-12T09:23:31.498Z,1028.34
2018-01-12T09:24:31.693Z,1028.36
2018-01-12T09:25:30.977Z,1028.38
2018-01-12T09:26:31.163Z,1028.44
2018-01-12T09:27:31.434Z,1028.39
2018-01-12T09:28:31.744Z,1028.45
2018-01-12T09:29:30.947Z,1028.48
2018-01-12T09:30:31.372Z,1028.48
2018-01-12T09:31:31.735Z,1028.44
2018-01-12T09:32:31.183Z,1028.44
2018-01-12T09:33:31.490Z,1028.46
2018-01-12T09:34:31.729Z,1028.47
2018-01-12T09:35:31.250Z,1028.51
2018-01-12T09:36:31.544Z,1028.51
2018-01-12T09:37:31.792Z,1028.52
2018-01-12T09:38:31.208Z,1028.55
2018-01-12T09:39:31.472Z,1028.52
2018-01-12T09:40:31.658Z,1028.53
2018-01-12T09:41:31.838Z,1028.56
2018-01-12T09:42:31.248Z,1028.56
2018-01-12T09:43:31.526Z,1028.53
2018-01-12T09:44:31.887Z,1028.58
2018-01-12T09:45:31.330Z,1028.61
2018-01-12T09:46:30.962Z,1028.61
2018-01-12T09:47:31.196Z,1028.57
2018-01-12T09:48:31.350Z,1028.59
2018-01-12T09:49:31.613Z,1028.61
2018-01-12T09:50:31.028Z,1028.63
2018-01-12T09:51:31.595Z,1028.62
2018-01-12T09:52:30.968Z,1028.61
2018-01-12T09:53:31.329Z,1028.63
2018-01-12T09:54:30.778Z,1028.64
2018-01-12T09:55:31.383Z,1028.63
2018-01-12T09:56:30.903Z,1028.65
2018-01-12T09:57:31.270Z,1028.68
2018-01-12T09:58:30.522Z,1028.68
2018-01-12T09:59:30.831Z,1028.71
2018-01-12T10:00:31.269Z,1028.76
2018-01-12T10:01:32.656Z,1028.7
2018-01-12T10:02:31.455Z,1028.73
2018-01-12T10:03:32.054Z,1028.73
2018-01-12T10:05:32.251Z,1028.72
2018-01-12T10:06:31.681Z,1028.71
2018-01-12T10:07:30.962Z,1028.7
2018-01-12T10:08:30.621Z,1028.68
2018-01-12T10:09:31.449Z,1028.72
2018-01-12T10:10:32.694Z,1028.74
2018-01-12T10:11:32.674Z,1028.67
2018-01-12T10:12:32.279Z,1028.7
2018-01-12T10:13:33.604Z,1028.69
2018-01-12T10:14:32.270Z,1028.7
2018-01-12T10:15:31.052Z,1028.71
2018-01-12T10:16:31.474Z,1028.75
2018-01-12T10:17:31.166Z,1028.7
2018-01-12T10:18:30.650Z,1028.76
2018-01-12T10:19:30.856Z,1028.75
2018-01-12T10:20:31.355Z,1028.72
2018-01-12T10:21:31.312Z,1028.76
2018-01-12T10:22:31.019Z,1028.72
2018-01-12T10:23:31.580Z,1028.7
2018-01-12T10:24:31.186Z,1028.72
2018-01-12T10:25:31.922Z,1028.74
2018-01-12T10:26:31.851Z,1028.71
2018-01-12T10:27:31.970Z,1028.71
2018-01-12T10:28:31.474Z,1028.69
2018-01-12T10:29:31.666Z,1028.69
2018-01-12T10:30:31.873Z,1028.67
2018-01-12T10:31:32.095Z,1028.68
2018-01-12T10:32:31.367Z,1028.73
2018-01-12T10:33:31.640Z,1028.68
2018-01-12T10:34:31.985Z,1028.67
2018-01-12T10:35:31.490Z,1028.69
2018-01-12T10:36:31.705Z,1028.68
2018-01-12T10:37:31.926Z,1028.71
2018-01-12T10:38:31.038Z,1028.68
2018-01-12T10:39:31.497Z,1028.68
2018-01-12T10:40:31.981Z,1028.68
2018-01-12T10:41:31.375Z,1028.68
2018-01-12T10:42:31.929Z,1028.64
2018-01-12T10:43:31.247Z,1028.66
2018-01-12T10:44:31.742Z,1028.67
2018-01-12T10:45:31.024Z,1028.72
2018-01-12T10:46:31.261Z,1028.69
2018-01-12T10:47:31.681Z,1028.66
2018-01-12T10:48:32.035Z,1028.71
2018-01-12T10:49:31.658Z,1028.68
2018-01-12T10:50:31.176Z,1028.67
2018-01-12T10:51:31.512Z,1028.67
2018-01-12T10:52:31.847Z,1028.69
2018-01-12T10:53:30.843Z,1028.7
2018-01-12T10:54:31.096Z,1028.71
2018-01-12T10:55:31.523Z,1028.73
2018-01-12T10:56:31.817Z,1028.7
2018-01-12T10:57:31.106Z,1028.72
2018-01-12T10:58:31.439Z,1028.75
2018-01-12T10:59:31.760Z,1028.71
2018-01-12T11:00:31.227Z,1028.7
2018-01-12T11:01:31.478Z,1028.7
2018-01-12T11:02:31.756Z,1028.69
2018-01-12T11:03:31.046Z,1028.7
2018-01-12T11:04:31.334Z,1028.71
2018-01-12T11:05:31.466Z,1028.69
2018-01-12T11:06:31.787Z,1028.67
2018-01-12T11:07:31.095Z,1028.7
2018-01-12T11:08:31.294Z,1028.65
2018-01-12T11:09:31.398Z,1028.62
2018-01-12T11:10:31.562Z,1028.65
2018-01-12T11:11:31.538Z,1028.64
2018-01-12T11:12:31.843Z,1028.62
2018-01-12T11:13:31.241Z,1028.63
2018-01-12T11:14:31.610Z,1028.59
2018-01-12T11:15:31.851Z,1028.59
2018-01-12T11:16:31.256Z,1028.6
2018-01-12T11:17:31.416Z,1028.58
2018-01-12T11:18:31.708Z,1028.57
2018-01-12T11:19:31.076Z,1028.61
2018-01-12T11:20:31.360Z,1028.59
2018-01-12T11:21:31.471Z,1028.57
2018-01-12T11:22:31.783Z,1028.59
2018-01-12T11:23:31.074Z,1028.56
2018-01-12T11:24:31.885Z,1028.54
2018-01-12T11:25:31.046Z,1028.51
2018-01-12T11:26:31.388Z,1028.54
2018-01-12T11:27:31.663Z,1028.52
2018-01-12T11:28:31.951Z,1028.51
2018-01-12T11:29:31.113Z,1028.52
2018-01-12T11:30:31.248Z,1028.48
2018-01-12T11:31:31.889Z,1028.51
2018-01-12T11:32:31.326Z,1028.5
2018-01-12T11:33:31.665Z,1028.5
2018-01-12T11:34:31.880Z,1028.47
2018-01-12T11:35:31.025Z,1028.5
2018-01-12T11:36:31.377Z,1028.47
2018-01-12T11:37:31.812Z,1028.48
2018-01-12T11:38:31.144Z,1028.42
2018-01-12T11:39:31.300Z,1028.44
2018-01-12T11:40:31.454Z,1028.44
2018-01-12T11:41:31.573Z,1028.42
2018-01-12T11:42:31.727Z,1028.37
2018-01-12T11:43:31.220Z,1028.37
2018-01-12T11:44:31.511Z,1028.41
2018-01-12T11:45:31.824Z,1028.43
2018-01-12T11:46:30.964Z,1028.4
2018-01-12T11:47:31.020Z,1028.39
2018-01-12T11:48:31.416Z,1028.35
2018-01-12T11:49:31.684Z,1028.33
2018-01-12T11:50:31.888Z,1028.28
2018-01-12T11:51:31.101Z,1028.32
2018-01-12T11:52:31.375Z,1028.33
2018-01-12T11:53:31.815Z,1028.37
2018-01-12T11:54:31.209Z,1028.31
2018-01-12T11:55:31.419Z,1028.25
2018-01-12T11:56:31.551Z,1028.34
2018-01-12T11:57:30.855Z,1028.35
2018-01-12T11:58:31.223Z,1028.3
2018-01-12T11:59:31.471Z,1028.31
2018-01-12T12:00:30.676Z,1028.26
2018-01-12T12:01:30.889Z,1028.3
2018-01-12T12:02:31.057Z,1028.29
2018-01-12T12:03:31.676Z,1028.24
2018-01-12T12:04:31.103Z,1028.28
2018-01-12T12:05:31.464Z,1028.24
2018-01-12T12:06:30.842Z,1028.2
2018-01-12T12:07:31.198Z,1028.23
2018-01-12T12:08:31.966Z,1028.22
2018-01-12T12:09:31.183Z,1028.19
2018-01-12T12:10:31.466Z,1028.19